VOCIVOML

Guest
Details From VOCI - COCHIN INTL
To VOML - MANGALORE
Flight Number -
Tags decoded
Created
Modified
Stats Distance 191 nm / 353 km
Max Altitude 0 ft / 0 m
Waypoints 2
Social Downloads 0
Likes 0
Share VATSIM

Download

Looking for another format? Having issues loading an existing format? Contact us
Advertisement - Login to hide

Notes

Requested: VOCI VOML

Route

VOCI VOML

ID Type Via Altitude Latitude Longitude Leg Dist Tot Dist Heading (true) Name
O VOCI APT - 0 ft / 0 m 10.15200˚ 76.40191˚ - 0 nm - COCHIN INTL
O VOML APT - 0 ft / 0 m 12.95794˚ 74.88870˚ 190 nm 190 nm 332° / 332° MANGALORE

Altitude Profile

Advertisement - Login to hide

Weather


0- 5 10 15 20 25 30 35+ Temperature / ° C

Clouds and Precipitation
Forecast for 2017-12-11 12:00 UTC. Updated 39 minutes ago

Ground ~20,000 ft ~40,000 ft Winds

VOCI

Details ICAO VOCI (COK)
Name COCHIN INTL
Region India
Timezone Asia/Kolkata (UTC+5.5)
Stats Elevation 30 ft / 9 m (AMSL)
Location 10.151996° 76.401905°
Runways 1
Magnetic Variation 1.655° W

METAR

VOCI 110930Z 30005KT 3500 BR SCT012 OVC080 28/25 Q1010 NOSIG

Decode

TAF

TAF VOCI 110500Z 1106/1212 00000KT 5000 HZ FEW012 BKN080 TEMPO 1110/1113 FEW015 FEW025CB BECMG 1116/1117 00000KT 3000 HZ TEMPO 1122/1202 2000 BR SCT015 BKN080 BECMG 1206/1207 23005KT 5000 HZ TEMPO 1209/1212 FEW015 FEW025CB

Decode

Departure Runways

ID Width Length Bearing (true) Bearing (mag) Surface Threshold Offset Overrun Length
09 148 ft / 45 m 11,139 ft / 3,395 m 87.86° 89.51° Asphalt 0 ft / 0 m 195 ft / 59 m
27 148 ft / 45 m 11,139 ft / 3,395 m 267.87° 269.52° Asphalt 0 ft / 0 m 195 ft / 59 m

VOML

Details ICAO VOML (IXE)
Name MANGALORE
Region India
Timezone Asia/Kolkata (UTC+5.5)
Stats Elevation 337 ft / 103 m (AMSL)
Location 12.957941° 74.888702°
Runways 2
Magnetic Variation 1.188° W

METAR

VOML 110930Z 26008KT 5000 HZ FEW015 31/22 Q1010 NOSIG

Decode

TAF

TAF VOML 102300Z 1100/1206 09005KT 1500 BR SCT010 TEMPO 1100/1103 0800 FG SCT005 BECMG 1104/1105 6000 FEW015 BECMG 1106/1107 27010KT BECMG 1115/1116 09005KT BECMG 1118/1119 3000 BR FEW010 BECMG 1122/1123 1500 BR SCT010 TEMPO 1200/1203 0800 FG SCT005 BECMG 1204/1205 6000 FEW015

Decode

Destination Runways

ID Width Length Bearing (true) Bearing (mag) Surface Threshold Offset Overrun Length
06 151 ft / 46 m 8,054 ft / 2,455 m 58.13° 59.32° Concrete 394 ft / 120 m 0 ft / 0 m
09 151 ft / 46 m 5,321 ft / 1,622 m 89.10° 90.29° Asphalt 0 ft / 0 m 0 ft / 0 m
24 151 ft / 46 m 8,054 ft / 2,455 m 238.13° 239.32° Concrete 0 ft / 0 m 0 ft / 0 m
27 151 ft / 46 m 5,321 ft / 1,622 m 269.11° 270.30° Asphalt 0 ft / 0 m 0 ft / 0 m

Approach Navaids

Runway Type Ident Frequency Range Bearing (true) Bearing (mag) Slope Elevation
24 Localiser IMNG 110.10 MHz 18 nm / 33 km 238.14° 239.33° - 337 ft / 103 m (AMSL)
24 Glidescope IMNG 110.10 MHz 10 nm / 19 km 238.13° 239.32° 3.00° 337 ft / 103 m (AMSL)
24 DME IMNG 110.10 MHz 18 nm / 33 km - - - 337 ft / 103 m (AMSL)

Popular Alternatives